Time;durP1;ratioP1;P1;durP2;ratioP2;P2;SDS_P1;SDS_P2;PMS_P1;PMS_P2;Temp;Humidity;BMP_temperature;BMP_pressure;BME280_temperature;BME280_humidity;BME280_pressure;Samples;Min_cycle;Max_cycle;Signal;HPM_P1;HPM_P2
2021/09/20 00:01:34;;;;;;;5.17;4.87;;;22.00;35.90;;;;;;4954818;28;20227;-59
2021/09/20 00:04:00;;;;;;;4.60;4.40;;;22.00;35.90;;;;;;4954608;28;20662;-58
2021/09/20 00:06:26;;;;;;;4.80;4.50;;;22.00;35.90;;;;;;4954630;28;20430;-59
2021/09/20 00:08:51;;;;;;;5.37;4.53;;;22.00;35.90;;;;;;4954206;28;20226;-60
2021/09/20 00:11:17;;;;;;;4.37;4.07;;;21.90;35.80;;;;;;4954579;28;20246;-59
2021/09/20 00:13:43;;;;;;;5.33;4.80;;;21.90;35.80;;;;;;4954643;28;20186;-59
2021/09/20 00:16:09;;;;;;;5.30;4.90;;;21.90;35.80;;;;;;4954458;28;20407;-59
2021/09/20 00:18:34;;;;;;;5.47;5.10;;;21.90;35.70;;;;;;4953551;28;20278;-59
2021/09/20 00:21:00;;;;;;;4.70;4.50;;;21.90;35.70;;;;;;4954118;28;20199;-59
2021/09/20 00:23:25;;;;;;;4.60;4.40;;;21.90;35.90;;;;;;4954390;28;20202;-59
2021/09/20 00:25:51;;;;;;;4.40;4.20;;;21.90;36.00;;;;;;4954208;28;20182;-60
2021/09/20 00:28:17;;;;;;;5.30;4.13;;;21.90;36.00;;;;;;4954089;28;20203;-60
2021/09/20 00:30:43;;;;;;;4.13;3.93;;;21.90;36.00;;;;;;4954316;28;20176;-59
2021/09/20 00:33:09;;;;;;;4.53;4.33;;;21.90;36.00;;;;;;4954311;28;20226;-58
2021/09/20 00:35:35;;;;;;;4.50;4.27;;;21.90;35.90;;;;;;4953997;28;20183;-59
2021/09/20 00:38:01;;;;;;;5.53;4.53;;;21.90;36.00;;;;;;4953863;28;20489;-57
2021/09/20 00:40:26;;;;;;;4.27;4.07;;;21.90;36.10;;;;;;4954240;28;20419;-58
2021/09/20 00:42:52;;;;;;;4.60;4.33;;;21.90;36.00;;;;;;4954111;28;20315;-60
2021/09/20 00:45:17;;;;;;;5.20;4.80;;;21.90;36.10;;;;;;4954145;28;20182;-58
2021/09/20 00:47:43;;;;;;;4.90;4.60;;;21.90;36.10;;;;;;4953746;28;20254;-60
2021/09/20 00:50:09;;;;;;;4.63;4.33;;;21.90;36.10;;;;;;4953886;28;20196;-59
2021/09/20 00:52:36;;;;;;;5.40;5.00;;;21.90;36.10;;;;;;4954007;28;20171;-59
2021/09/20 00:55:04;;;;;;;4.10;3.90;;;21.90;36.20;;;;;;4953856;28;20411;-58
2021/09/20 00:57:30;;;;;;;4.77;4.50;;;21.90;36.10;;;;;;4953639;28;20481;-59
2021/09/20 00:59:56;;;;;;;4.70;4.40;;;21.80;36.20;;;;;;4953928;28;20415;-56
2021/09/20 01:02:21;;;;;;;4.70;4.40;;;21.80;36.20;;;;;;4953930;28;20787;-59
2021/09/20 01:04:47;;;;;;;4.20;3.90;;;21.90;36.20;;;;;;4953757;28;20539;-58
2021/09/20 01:07:12;;;;;;;4.73;4.40;;;21.90;36.20;;;;;;4953666;28;20247;-59
2021/09/20 01:09:41;;;;;;;4.60;4.40;;;21.80;36.20;;;;;;4953786;28;20612;-59
2021/09/20 01:12:11;;;;;;;4.50;4.20;;;21.80;36.20;;;;;;4954031;28;20214;-59
2021/09/20 01:14:37;;;;;;;4.40;4.20;;;21.80;36.10;;;;;;4953803;28;20419;-60
2021/09/20 01:17:04;;;;;;;4.60;4.30;;;21.80;36.20;;;;;;4953623;28;20414;-59
2021/09/20 01:19:30;;;;;;;4.83;4.40;;;21.80;36.20;;;;;;4953667;28;20438;-58
2021/09/20 01:22:01;;;;;;;4.37;4.17;;;21.80;36.20;;;;;;4953598;28;20868;-59
2021/09/20 01:24:27;;;;;;;3.97;3.77;;;21.80;36.20;;;;;;4953727;28;20402;-59
2021/09/20 01:27:00;;;;;;;4.17;3.97;;;21.80;36.30;;;;;;4953569;28;20415;-60
2021/09/20 01:29:26;;;;;;;4.03;3.83;;;21.80;36.30;;;;;;4953632;28;20506;-59
2021/09/20 01:31:51;;;;;;;4.37;4.17;;;21.80;36.30;;;;;;4957339;28;20497;-59
2021/09/20 01:34:17;;;;;;;4.20;3.90;;;21.80;36.30;;;;;;4957374;28;20176;-59
2021/09/20 01:36:42;;;;;;;4.23;4.03;;;21.80;36.30;;;;;;4957098;28;20211;-59
2021/09/20 01:39:16;;;;;;;4.23;3.97;;;21.80;36.30;;;;;;4957398;28;20187;-59
2021/09/20 01:41:42;;;;;;;4.77;4.23;;;21.80;37.00;;;;;;4957318;28;20582;-59
2021/09/20 01:44:07;;;;;;;4.37;4.07;;;21.80;36.30;;;;;;4957191;28;20419;-59
2021/09/20 01:46:33;;;;;;;4.30;4.10;;;21.80;36.40;;;;;;4957103;28;20672;-59
2021/09/20 01:49:01;;;;;;;4.23;4.03;;;21.80;36.40;;;;;;4957081;28;20799;-59
2021/09/20 01:51:27;;;;;;;4.70;4.40;;;21.80;36.40;;;;;;4957236;28;20692;-60
2021/09/20 01:53:52;;;;;;;4.93;4.63;;;21.80;36.40;;;;;;4957130;28;20422;-59
2021/09/20 01:56:18;;;;;;;4.50;4.30;;;21.80;36.40;;;;;;4956974;28;20978;-59
2021/09/20 01:58:44;;;;;;;4.60;4.30;;;21.80;36.40;;;;;;4956753;28;20202;-59
2021/09/20 02:01:09;;;;;;;4.57;4.37;;;21.80;36.50;;;;;;4956829;28;20206;-59
2021/09/20 02:03:35;;;;;;;4.50;4.07;;;21.80;36.50;;;;;;4957004;28;20733;-58
2021/09/20 02:06:00;;;;;;;4.23;3.93;;;21.80;36.40;;;;;;4956803;28;20563;-58
2021/09/20 02:08:26;;;;;;;3.87;3.67;;;21.80;36.50;;;;;;4956532;28;20242;-59
2021/09/20 02:10:51;;;;;;;4.47;4.17;;;21.80;36.60;;;;;;4956710;28;20207;-57
2021/09/20 02:13:17;;;;;;;5.03;4.73;;;21.80;36.50;;;;;;4956768;28;20226;-56
2021/09/20 02:15:42;;;;;;;4.40;4.20;;;21.80;36.40;;;;;;4956587;28;20180;-59
2021/09/20 02:18:08;;;;;;;4.50;4.20;;;21.80;36.40;;;;;;4956321;28;20578;-56
2021/09/20 02:20:34;;;;;;;4.53;4.27;;;21.80;36.60;;;;;;4956538;28;20199;-60
2021/09/20 02:22:59;;;;;;;4.07;3.87;;;21.80;36.60;;;;;;4956696;28;20642;-59
2021/09/20 02:25:25;;;;;;;4.50;4.20;;;21.80;36.60;;;;;;4956413;28;20646;-58
2021/09/20 02:27:50;;;;;;;4.73;4.53;;;21.70;36.50;;;;;;4956146;28;20191;-59
2021/09/20 02:30:16;;;;;;;4.83;4.50;;;21.80;36.70;;;;;;4956358;28;20184;-59
2021/09/20 02:32:41;;;;;;;4.47;4.17;;;21.80;36.60;;;;;;4956268;28;20187;-59
2021/09/20 02:35:08;;;;;;;4.90;4.60;;;21.70;36.50;;;;;;4956348;28;20188;-59
2021/09/20 02:37:34;;;;;;;4.40;4.10;;;21.70;37.10;;;;;;4955912;28;20250;-57
2021/09/20 02:40:00;;;;;;;4.17;3.87;;;21.70;36.50;;;;;;4956253;28;20447;-59
2021/09/20 02:42:25;;;;;;;4.83;4.53;;;21.80;36.60;;;;;;4955429;28;20179;-59
2021/09/20 02:44:51;;;;;;;4.40;4.20;;;21.70;36.60;;;;;;4956147;28;20179;-60
2021/09/20 02:47:16;;;;;;;4.93;4.63;;;21.70;36.60;;;;;;4955765;28;20674;-58
2021/09/20 02:49:42;;;;;;;4.60;4.30;;;21.70;36.60;;;;;;4955910;28;20551;-59
2021/09/20 02:52:08;;;;;;;4.33;4.13;;;21.70;36.60;;;;;;4955978;28;20175;-59
2021/09/20 02:54:33;;;;;;;4.47;4.27;;;21.70;36.70;;;;;;4956060;28;20308;-58
2021/09/20 02:56:59;;;;;;;5.10;4.80;;;21.70;36.70;;;;;;4955655;28;20538;-59
2021/09/20 02:59:24;;;;;;;4.20;3.90;;;21.70;36.70;;;;;;4955732;28;20196;-60
2021/09/20 03:01:50;;;;;;;4.60;4.40;;;21.70;36.70;;;;;;4955795;28;20180;-59
2021/09/20 03:04:15;;;;;;;4.10;3.90;;;21.70;36.70;;;;;;4955824;28;20184;-59
2021/09/20 03:06:41;;;;;;;4.67;4.47;;;21.70;36.70;;;;;;4955482;28;20176;-58
2021/09/20 03:09:06;;;;;;;4.70;4.50;;;21.70;36.60;;;;;;4955598;28;20713;-59
2021/09/20 03:11:32;;;;;;;4.43;4.23;;;21.70;36.60;;;;;;4955625;28;20210;-59
2021/09/20 03:13:57;;;;;;;4.17;3.97;;;21.70;36.60;;;;;;4955614;28;20213;-59
2021/09/20 03:16:23;;;;;;;4.00;3.80;;;21.70;36.70;;;;;;4955473;28;20225;-59
2021/09/20 03:18:48;;;;;;;4.07;3.87;;;21.70;36.50;;;;;;4955336;28;20314;-59
2021/09/20 03:21:16;;;;;;;4.93;4.63;;;21.70;36.50;;;;;;4955249;28;20281;-58
2021/09/20 03:23:41;;;;;;;4.00;3.80;;;21.70;36.50;;;;;;4955544;28;20191;-59
2021/09/20 03:26:07;;;;;;;4.80;4.50;;;21.70;36.50;;;;;;4955354;28;20419;-59
2021/09/20 03:28:32;;;;;;;4.97;4.67;;;21.70;36.50;;;;;;4955018;28;20218;-57
2021/09/20 03:30:58;;;;;;;4.30;4.10;;;21.70;36.40;;;;;;4955301;28;20172;-59
2021/09/20 03:33:23;;;;;;;4.27;4.07;;;21.70;36.60;;;;;;4955159;28;20211;-59
2021/09/20 03:35:49;;;;;;;4.30;3.90;;;21.70;36.60;;;;;;4955248;28;20171;-59
2021/09/20 03:38:14;;;;;;;4.50;4.23;;;21.70;36.60;;;;;;4954734;28;20195;-59
2021/09/20 03:40:40;;;;;;;4.30;4.00;;;21.70;36.60;;;;;;4955166;28;20176;-60
2021/09/20 03:43:05;;;;;;;4.33;4.13;;;21.70;36.70;;;;;;4954984;28;20189;-59
2021/09/20 03:45:31;;;;;;;4.57;4.27;;;21.70;36.70;;;;;;4955050;28;20242;-58
2021/09/20 03:47:57;;;;;;;4.33;4.13;;;21.70;36.80;;;;;;4954550;28;20713;-59
2021/09/20 03:50:22;;;;;;;4.43;4.23;;;21.70;36.60;;;;;;4955331;28;20643;-59
2021/09/20 03:52:48;;;;;;;5.10;4.27;;;21.70;36.60;;;;;;4954468;28;20175;-59
2021/09/20 03:55:13;;;;;;;4.30;4.10;;;21.70;36.80;;;;;;4954231;28;20614;-58
2021/09/20 03:57:39;;;;;;;4.60;4.20;;;21.70;36.80;;;;;;4954314;28;20183;-59
2021/09/20 04:00:06;;;;;;;4.40;4.20;;;21.70;36.70;;;;;;4954794;28;20220;-59
2021/09/20 04:02:31;;;;;;;4.13;3.93;;;21.70;36.60;;;;;;4954703;28;20175;-59
2021/09/20 04:04:57;;;;;;;4.70;4.40;;;21.70;36.70;;;;;;4954791;28;20449;-59
2021/09/20 04:07:23;;;;;;;4.10;3.90;;;21.70;36.80;;;;;;4954134;28;20231;-59
2021/09/20 04:09:49;;;;;;;4.63;4.33;;;21.70;36.70;;;;;;4954530;28;20828;-59
2021/09/20 04:12:14;;;;;;;4.53;4.33;;;21.70;36.70;;;;;;4954425;28;20179;-59
2021/09/20 04:14:40;;;;;;;4.90;4.60;;;21.70;36.70;;;;;;4954449;28;20254;-59
2021/09/20 04:17:07;;;;;;;4.53;4.33;;;21.70;36.70;;;;;;4954096;28;20209;-59
2021/09/20 04:19:32;;;;;;;4.37;3.97;;;21.70;36.80;;;;;;4954518;28;20199;-60
2021/09/20 04:21:58;;;;;;;4.97;4.67;;;21.70;36.80;;;;;;4954350;28;20526;-59
2021/09/20 04:24:23;;;;;;;5.30;5.00;;;21.70;36.80;;;;;;4954236;28;20183;-61
2021/09/20 04:26:49;;;;;;;4.70;4.40;;;21.70;36.90;;;;;;4954203;28;20183;-62
2021/09/20 04:29:14;;;;;;;4.73;4.33;;;21.70;36.80;;;;;;4953940;28;20222;-61
2021/09/20 04:31:40;;;;;;;5.40;5.00;;;21.70;36.90;;;;;;4954252;28;20698;-59
2021/09/20 04:34:05;;;;;;;4.73;4.40;;;21.70;37.00;;;;;;4954117;28;20218;-61
2021/09/20 04:36:31;;;;;;;4.83;4.43;;;21.70;37.10;;;;;;4954181;28;20203;-59
2021/09/20 04:38:56;;;;;;;4.77;4.47;;;21.70;37.00;;;;;;4953865;28;20321;-61
2021/09/20 04:41:22;;;;;;;8.27;4.50;;;21.70;37.10;;;;;;4949056;28;20179;-62
2021/09/20 04:43:47;;;;;;;4.50;4.20;;;21.70;37.00;;;;;;4953865;28;20175;-65
2021/09/20 04:46:13;;;;;;;4.67;4.37;;;21.70;36.90;;;;;;4969020;28;20193;-62
2021/09/20 04:48:38;;;;;;;4.60;4.20;;;21.70;36.90;;;;;;4971935;28;20213;-62
2021/09/20 04:51:04;;;;;;;4.60;4.30;;;21.70;36.80;;;;;;4973158;28;20218;-62
2021/09/20 04:53:30;;;;;;;4.23;4.00;;;21.70;36.80;;;;;;4972871;28;20210;-63
2021/09/20 04:55:55;;;;;;;4.30;4.10;;;21.70;36.80;;;;;;4988165;28;20756;-63
2021/09/20 04:58:21;;;;;;;5.07;4.67;;;21.70;36.80;;;;;;4971936;28;20217;-63
2021/09/20 05:00:46;;;;;;;5.10;4.80;;;21.70;36.70;;;;;;4972895;28;20237;-62
2021/09/20 05:03:12;;;;;;;4.23;4.03;;;21.70;36.70;;;;;;4972951;28;20206;-62
2021/09/20 05:05:37;;;;;;;4.77;4.47;;;21.70;36.60;;;;;;4975216;28;20860;-60
2021/09/20 05:08:03;;;;;;;4.47;4.27;;;21.70;36.60;;;;;;4976813;28;20232;-59
2021/09/20 05:10:29;;;;;;;4.40;4.20;;;21.70;36.60;;;;;;4976979;28;20175;-59
2021/09/20 05:12:55;;;;;;;4.37;3.97;;;21.70;36.60;;;;;;4976923;28;20729;-58
2021/09/20 05:15:20;;;;;;;5.00;4.60;;;21.70;36.60;;;;;;4976799;28;20171;-59
2021/09/20 05:17:46;;;;;;;4.40;4.20;;;21.70;36.80;;;;;;4976655;28;20487;-59
2021/09/20 05:20:13;;;;;;;4.00;3.80;;;21.70;36.80;;;;;;4976743;28;20241;-59
2021/09/20 05:22:39;;;;;;;4.33;4.00;;;21.70;36.90;;;;;;4976882;28;20186;-59
2021/09/20 05:25:05;;;;;;;4.67;4.37;;;21.60;36.80;;;;;;4976706;28;20463;-59
2021/09/20 05:27:31;;;;;;;4.60;4.30;;;21.70;37.50;;;;;;4976254;28;20410;-58
2021/09/20 05:29:58;;;;;;;4.20;4.00;;;21.70;36.80;;;;;;4976513;28;20460;-59
2021/09/20 05:32:24;;;;;;;4.27;3.97;;;21.70;36.80;;;;;;4976532;28;20421;-59
2021/09/20 05:34:50;;;;;;;4.63;4.30;;;21.70;36.80;;;;;;4976612;28;20464;-59
2021/09/20 05:37:16;;;;;;;4.27;3.97;;;21.70;36.80;;;;;;4962094;28;20881;-63
2021/09/20 05:39:41;;;;;;;4.87;4.47;;;21.70;37.00;;;;;;4954619;29;20195;-61
2021/09/20 05:42:07;;;;;;;4.90;4.50;;;21.70;37.10;;;;;;4955027;29;20549;-62
2021/09/20 05:44:33;;;;;;;5.50;5.10;;;21.70;36.90;;;;;;4955181;29;20180;-63
2021/09/20 05:46:58;;;;;;;5.47;4.90;;;21.70;37.10;;;;;;4954636;29;20190;-59
2021/09/20 05:49:24;;;;;;;9.13;4.80;;;21.70;37.00;;;;;;4954983;29;20211;-60
2021/09/20 05:51:50;;;;;;;4.53;4.23;;;21.70;37.00;;;;;;4955120;29;20180;-59
2021/09/20 05:54:15;;;;;;;5.97;5.37;;;21.70;37.00;;;;;;4954915;29;20270;-60
2021/09/20 05:56:41;;;;;;;4.60;4.30;;;21.70;36.90;;;;;;4954679;29;20250;-59
2021/09/20 05:59:06;;;;;;;5.07;4.50;;;21.70;37.00;;;;;;4954551;29;20895;-61
2021/09/20 06:01:32;;;;;;;5.23;4.80;;;21.80;37.40;;;;;;4955010;29;20429;-61
2021/09/20 06:03:57;;;;;;;4.80;4.50;;;21.80;37.10;;;;;;4954730;29;20201;-60
2021/09/20 06:06:23;;;;;;;5.47;4.93;;;21.80;37.10;;;;;;4954986;28;20217;-63
2021/09/20 06:08:49;;;;;;;5.83;4.37;;;21.80;37.20;;;;;;4955363;29;20246;-60
2021/09/20 06:11:15;;;;;;;5.07;4.77;;;21.80;37.10;;;;;;4956531;29;20187;-60
2021/09/20 06:13:41;;;;;;;5.40;4.93;;;21.80;37.10;;;;;;4956363;29;20183;-58
2021/09/20 06:16:07;;;;;;;5.60;5.20;;;21.80;36.90;;;;;;4956004;28;20450;-60
2021/09/20 06:18:32;;;;;;;6.93;5.03;;;21.70;36.80;;;;;;4956064;29;20443;-60
2021/09/20 06:20:58;;;;;;;6.33;5.00;;;21.70;36.80;;;;;;4956317;29;20199;-60
2021/09/20 06:23:23;;;;;;;4.60;4.30;;;21.70;36.70;;;;;;4956431;29;20195;-60
2021/09/20 06:25:49;;;;;;;5.40;4.53;;;21.70;36.70;;;;;;4956122;29;20191;-60
2021/09/20 06:28:15;;;;;;;4.90;4.60;;;21.70;36.60;;;;;;4956039;29;20305;-60
2021/09/20 06:30:41;;;;;;;5.53;5.03;;;21.70;36.60;;;;;;4956306;29;20207;-60
2021/09/20 06:33:06;;;;;;;6.23;4.83;;;21.70;36.60;;;;;;4956195;29;20187;-60
2021/09/20 06:35:32;;;;;;;4.90;4.50;;;21.70;36.60;;;;;;4956102;29;20174;-61
2021/09/20 06:37:58;;;;;;;5.17;4.70;;;21.60;36.40;;;;;;4955831;28;20195;-61
2021/09/20 06:40:24;;;;;;;5.47;5.10;;;21.60;36.50;;;;;;4953672;29;20190;-61
2021/09/20 06:42:49;;;;;;;5.10;4.80;;;21.60;36.30;;;;;;4958566;28;20201;-61
2021/09/20 06:45:15;;;;;;;5.27;4.87;;;21.70;36.30;;;;;;4974716;28;20241;-62
2021/09/20 06:47:41;;;;;;;5.30;4.80;;;21.70;36.20;;;;;;4974578;28;20649;-61
2021/09/20 06:50:08;;;;;;;5.40;5.00;;;21.70;36.10;;;;;;4975158;28;20472;-61
2021/09/20 06:52:34;;;;;;;5.80;5.30;;;21.70;35.90;;;;;;4975006;28;20204;-61
2021/09/20 06:54:59;;;;;;;5.90;5.40;;;21.70;35.80;;;;;;4975118;28;20418;-61
2021/09/20 06:57:25;;;;;;;5.63;5.23;;;21.70;35.70;;;;;;4975101;28;20413;-61
2021/09/20 06:59:50;;;;;;;5.77;5.33;;;21.70;35.60;;;;;;4975224;28;20211;-61
2021/09/20 07:02:16;;;;;;;5.63;5.20;;;21.70;35.60;;;;;;4974918;28;20535;-62
2021/09/20 07:04:42;;;;;;;5.90;5.50;;;21.80;35.70;;;;;;4969391;28;20183;-63
2021/09/20 07:07:07;;;;;;;6.60;6.00;;;21.70;35.50;;;;;;4955368;28;20194;-61
2021/09/20 07:09:33;;;;;;;5.87;5.37;;;21.70;35.50;;;;;;4955200;29;20215;-61
2021/09/20 07:11:58;;;;;;;6.70;6.00;;;21.70;35.70;;;;;;4955736;29;20175;-62
2021/09/20 07:14:24;;;;;;;5.43;4.93;;;21.70;35.70;;;;;;4955526;29;20701;-61
2021/09/20 07:16:49;;;;;;;7.80;5.17;;;21.70;35.70;;;;;;4955301;29;20267;-61
2021/09/20 07:19:16;;;;;;;5.30;4.57;;;21.70;35.80;;;;;;4955192;29;20231;-62
2021/09/20 07:21:43;;;;;;;5.80;4.50;;;21.70;35.90;;;;;;4955323;29;20195;-61
2021/09/20 07:24:09;;;;;;;5.47;4.40;;;21.70;36.00;;;;;;4955049;29;20914;-62
2021/09/20 07:26:34;;;;;;;5.47;4.13;;;21.70;36.10;;;;;;4955282;29;20429;-63
2021/09/20 07:29:00;;;;;;;4.90;4.50;;;21.70;36.10;;;;;;4948460;28;20211;-61
2021/09/20 07:31:26;;;;;;;4.87;4.57;;;21.70;36.20;;;;;;4952742;29;20179;-60
2021/09/20 07:33:52;;;;;;;6.43;5.23;;;21.70;36.30;;;;;;4953004;29;20278;-61
2021/09/20 07:36:17;;;;;;;9.90;4.90;;;21.80;36.40;;;;;;4955467;28;20179;-62
2021/09/20 07:38:43;;;;;;;4.77;4.37;;;21.80;36.50;;;;;;4971496;28;20430;-61
2021/09/20 07:41:09;;;;;;;4.83;4.53;;;21.70;36.40;;;;;;4971614;28;20214;-62
2021/09/20 07:43:36;;;;;;;4.97;4.50;;;21.70;36.40;;;;;;4971747;28;20414;-62
2021/09/20 07:46:02;;;;;;;6.37;4.93;;;21.70;36.50;;;;;;4971683;28;20446;-61
2021/09/20 07:48:28;;;;;;;4.40;4.00;;;21.80;36.70;;;;;;4971555;28;20991;-63
2021/09/20 07:50:54;;;;;;;5.07;4.60;;;21.70;36.60;;;;;;4971780;28;20453;-63
2021/09/20 07:53:20;;;;;;;4.40;4.10;;;21.80;36.70;;;;;;4971708;28;20425;-62
2021/09/20 07:55:47;;;;;;;5.10;4.67;;;21.70;36.60;;;;;;4971815;28;20493;-58
2021/09/20 07:58:13;;;;;;;5.43;5.03;;;21.80;36.80;;;;;;4971587;28;20307;-61
2021/09/20 08:00:41;;;;;;;6.30;5.10;;;21.80;36.70;;;;;;4971749;28;20749;-61
2021/09/20 08:03:11;;;;;;;4.60;4.33;;;21.70;36.60;;;;;;4971435;28;20221;-60
2021/09/20 08:05:40;;;;;;;4.10;3.90;;;21.80;36.80;;;;;;4971133;28;20426;-62
2021/09/20 08:08:06;;;;;;;4.70;4.30;;;21.80;36.80;;;;;;4971181;28;20964;-63
2021/09/20 08:10:33;;;;;;;4.60;4.30;;;21.80;36.80;;;;;;4971368;28;20415;-62
2021/09/20 08:12:59;;;;;;;4.40;4.20;;;21.80;36.90;;;;;;4971210;28;20901;-62
2021/09/20 08:15:25;;;;;;;5.17;4.77;;;21.80;37.10;;;;;;4971124;28;20407;-61
2021/09/20 08:17:51;;;;;;;5.70;5.20;;;21.80;36.90;;;;;;4970830;28;20438;-61
2021/09/20 08:20:17;;;;;;;5.03;4.73;;;21.80;36.90;;;;;;4970941;28;20434;-62
2021/09/20 08:22:44;;;;;;;4.57;4.27;;;21.80;36.80;;;;;;4971157;28;20689;-61
2021/09/20 08:25:10;;;;;;;5.70;5.17;;;21.80;37.00;;;;;;4971089;28;20430;-62
2021/09/20 08:27:35;;;;;;;5.57;5.07;;;21.80;37.00;;;;;;4973387;28;20424;-61
2021/09/20 08:30:01;;;;;;;5.37;4.83;;;21.80;37.00;;;;;;4973420;28;20206;-58
2021/09/20 08:32:27;;;;;;;4.50;4.30;;;21.80;37.10;;;;;;4973300;28;20182;-62
2021/09/20 08:34:52;;;;;;;5.30;4.13;;;21.80;37.10;;;;;;4971544;28;20425;-62
2021/09/20 08:37:18;;;;;;;4.60;4.30;;;21.80;37.00;;;;;;4953762;29;20179;-63
2021/09/20 08:39:43;;;;;;;5.47;5.07;;;21.80;36.90;;;;;;4953409;28;20207;-62
2021/09/20 08:42:09;;;;;;;4.50;4.10;;;21.80;37.00;;;;;;4953996;29;20555;-63
2021/09/20 08:44:35;;;;;;;6.10;5.10;;;21.80;37.00;;;;;;4954007;29;20194;-62
2021/09/20 08:47:01;;;;;;;5.20;4.70;;;21.80;37.00;;;;;;4953728;29;20207;-63
2021/09/20 08:49:27;;;;;;;5.47;5.07;;;21.80;37.00;;;;;;4953584;29;20861;-62
2021/09/20 08:51:57;;;;;;;5.13;4.83;;;21.80;37.00;;;;;;4953937;29;20187;-62
2021/09/20 08:54:24;;;;;;;5.57;5.10;;;21.80;37.00;;;;;;4953880;29;20419;-63
2021/09/20 08:56:50;;;;;;;4.93;4.63;;;21.90;37.10;;;;;;4953601;29;20421;-62
2021/09/20 08:59:16;;;;;;;5.20;4.80;;;21.80;36.90;;;;;;4953525;29;20856;-62
2021/09/20 09:01:46;;;;;;;5.30;4.90;;;21.90;37.20;;;;;;4953782;29;20430;-62
2021/09/20 09:04:44;;;;;;;5.83;5.33;;;21.80;36.90;;;;;;4953599;29;20454;-62
2021/09/20 09:07:12;;;;;;;5.90;5.40;;;21.80;37.00;;;;;;4952275;28;20439;-62
2021/09/20 09:09:50;;;;;;;5.30;4.80;;;21.80;36.90;;;;;;4953438;29;20471;-62
2021/09/20 09:12:26;;;;;;;5.17;4.87;;;21.80;37.00;;;;;;4953648;29;20478;-63
2021/09/20 09:14:56;;;;;;;5.23;4.83;;;21.80;37.00;;;;;;4953804;28;20775;-63
2021/09/20 09:17:34;;;;;;;5.97;5.57;;;21.80;37.00;;;;;;4953500;29;20426;-62
2021/09/20 09:20:14;;;;;;;5.53;5.13;;;21.90;37.00;;;;;;4953473;29;20421;-62
2021/09/20 09:22:46;;;;;;;5.57;5.07;;;21.80;37.00;;;;;;4953590;29;20422;-62
2021/09/20 09:25:18;;;;;;;5.17;4.87;;;21.80;37.10;;;;;;4952325;29;20442;-62
2021/09/20 09:27:46;;;;;;;5.10;4.70;;;21.90;37.20;;;;;;4953473;29;20465;-63
2021/09/20 09:30:22;;;;;;;5.50;5.10;;;21.80;37.10;;;;;;4953454;29;20537;-62
2021/09/20 09:33:02;;;;;;;6.07;5.63;;;21.90;37.30;;;;;;4953267;29;20428;-63
2021/09/20 09:35:30;;;;;;;5.63;5.17;;;21.90;37.20;;;;;;4953480;29;20425;-68
2021/09/20 09:38:05;;;;;;;5.90;5.43;;;21.90;37.10;;;;;;4953539;28;20430;-60
2021/09/20 09:40:43;;;;;;;6.13;5.60;;;21.90;37.20;;;;;;4953426;28;20402;-61
2021/09/20 09:43:09;;;;;;;6.10;5.63;;;21.90;37.30;;;;;;4953382;29;20457;-63
2021/09/20 09:45:34;;;;;;;8.23;5.27;;;21.90;37.40;;;;;;4953142;28;20965;-61
2021/09/20 09:48:11;;;;;;;5.87;5.47;;;21.90;37.30;;;;;;4953005;28;20206;-61
2021/09/20 09:50:42;;;;;;;5.50;5.20;;;21.90;37.30;;;;;;4954102;28;20556;-62
2021/09/20 09:53:19;;;;;;;5.53;5.07;;;21.90;37.30;;;;;;4956918;28;20449;-59
2021/09/20 09:55:45;;;;;;;6.00;5.60;;;21.90;37.40;;;;;;4957061;28;20797;-60
2021/09/20 09:58:11;;;;;;;5.53;5.13;;;21.90;37.40;;;;;;4956271;28;20446;-61
2021/09/20 10:00:38;;;;;;;5.50;5.10;;;21.90;37.40;;;;;;4957121;28;20230;-61
2021/09/20 10:03:04;;;;;;;5.50;5.10;;;21.90;37.40;;;;;;4956882;28;20441;-62
2021/09/20 10:05:30;;;;;;;6.20;5.80;;;21.90;37.40;;;;;;4956645;28;20442;-61
2021/09/20 10:07:55;;;;;;;5.63;5.23;;;21.80;37.30;;;;;;4956266;28;20505;-62
2021/09/20 10:10:25;;;;;;;5.80;5.30;;;21.90;37.40;;;;;;4956390;29;20629;-61
2021/09/20 10:12:54;;;;;;;5.80;5.40;;;21.80;37.40;;;;;;4956571;28;20183;-62
2021/09/20 10:15:22;;;;;;;5.93;5.53;;;21.90;37.50;;;;;;4956527;29;20477;-63
2021/09/20 10:17:48;;;;;;;6.00;5.70;;;21.90;37.50;;;;;;4956235;28;20449;-63
2021/09/20 10:20:17;;;;;;;6.60;6.10;;;21.90;37.50;;;;;;4956227;28;20431;-62
2021/09/20 10:22:44;;;;;;;7.33;6.20;;;21.90;37.50;;;;;;4956478;28;20815;-62
2021/09/20 10:25:12;;;;;;;6.10;5.60;;;21.80;37.50;;;;;;4956115;28;20430;-62
2021/09/20 10:27:38;;;;;;;5.67;5.37;;;21.80;37.40;;;;;;4956070;28;20902;-60
2021/09/20 10:30:22;;;;;;;6.87;6.47;;;21.90;37.50;;;;;;4955845;28;20470;-62
2021/09/20 10:33:00;;;;;;;6.60;6.10;;;21.90;37.50;;;;;;4956272;28;20419;-61
2021/09/20 10:35:42;;;;;;;6.47;5.87;;;21.90;37.50;;;;;;4956076;28;20419;-61
2021/09/20 10:38:13;;;;;;;5.87;5.47;;;21.90;37.40;;;;;;4955893;29;20537;-62
2021/09/20 10:40:39;;;;;;;6.13;5.67;;;21.90;37.40;;;;;;4956084;29;20422;-62
2021/09/20 10:43:06;;;;;;;6.87;6.37;;;21.90;37.50;;;;;;4956115;29;20407;-62
2021/09/20 10:45:36;;;;;;;6.10;5.70;;;21.90;37.50;;;;;;4956145;29;20184;-61
2021/09/20 10:48:14;;;;;;;7.17;6.60;;;21.90;37.50;;;;;;4955563;28;20439;-61
2021/09/20 10:51:17;;;;;;;6.17;5.77;;;21.90;37.50;;;;;;4956227;29;20435;-62
2021/09/20 10:53:43;;;;;;;6.50;6.10;;;21.90;37.40;;;;;;4953395;29;20419;-59
2021/09/20 10:56:14;;;;;;;7.60;7.10;;;21.90;37.40;;;;;;4955387;28;20415;-59
2021/09/20 10:58:52;;;;;;;7.20;6.70;;;21.90;37.80;;;;;;4955305;29;20422;-59
2021/09/20 11:01:19;;;;;;;7.57;6.90;;;22.00;38.00;;;;;;4955822;29;20449;-61
2021/09/20 11:03:54;;;;;;;7.37;6.00;;;22.00;37.70;;;;;;4955505;28;20782;-62
2021/09/20 11:06:33;;;;;;;6.93;6.33;;;22.00;38.20;;;;;;4955869;28;20410;-61
2021/09/20 11:08:59;;;;;;;7.37;6.97;;;22.00;37.40;;;;;;4974057;28;20454;-59
2021/09/20 11:11:43;;;;;;;7.17;6.50;;;22.00;37.40;;;;;;4974938;28;20433;-60
2021/09/20 11:14:16;;;;;;;7.83;7.27;;;21.90;37.40;;;;;;4974847;28;20536;-60
2021/09/20 11:16:47;;;;;;;6.60;6.10;;;21.90;37.40;;;;;;4974626;28;20830;-60
2021/09/20 11:19:28;;;;;;;6.97;6.47;;;21.90;37.40;;;;;;4964795;28;20603;-61
2021/09/20 11:22:03;;;;;;;7.47;6.90;;;21.90;37.40;;;;;;4955287;28;20535;-62
2021/09/20 11:24:33;;;;;;;7.20;6.50;;;22.00;37.40;;;;;;4955326;28;20470;-61
2021/09/20 11:27:00;;;;;;;7.80;7.20;;;22.00;37.40;;;;;;4955226;28;20917;-62
2021/09/20 11:29:26;;;;;;;7.23;6.70;;;22.00;37.40;;;;;;4954772;28;20462;-60
2021/09/20 11:31:53;;;;;;;7.20;6.70;;;22.00;37.40;;;;;;4954996;28;20418;-62
2021/09/20 11:34:32;;;;;;;6.80;6.30;;;22.00;37.50;;;;;;4955214;28;20419;-59
2021/09/20 11:37:20;;;;;;;6.90;6.40;;;22.00;37.60;;;;;;4954699;28;20425;-61
2021/09/20 11:39:48;;;;;;;6.90;6.40;;;22.00;37.60;;;;;;4955047;28;20439;-61
2021/09/20 11:42:15;;;;;;;6.67;6.27;;;22.00;37.60;;;;;;4954721;28;20423;-60
2021/09/20 11:44:56;;;;;;;7.50;6.87;;;22.00;37.60;;;;;;4954881;28;20457;-61
2021/09/20 11:47:24;;;;;;;6.60;6.20;;;22.00;37.50;;;;;;4954618;29;20775;-62
2021/09/20 11:49:58;;;;;;;7.53;6.97;;;22.10;37.50;;;;;;4954759;29;20467;-61
2021/09/20 11:52:35;;;;;;;6.67;6.17;;;22.00;37.50;;;;;;4954705;29;20497;-62
2021/09/20 11:55:01;;;;;;;6.73;6.33;;;22.00;37.60;;;;;;4954610;28;20454;-61
2021/09/20 11:57:31;;;;;;;7.57;6.97;;;22.00;37.60;;;;;;4954417;28;20514;-61
2021/09/20 12:00:00;;;;;;;6.57;6.17;;;22.00;37.40;;;;;;4953689;28;20426;-61
2021/09/20 12:02:50;;;;;;;6.20;5.80;;;22.00;37.40;;;;;;4953408;28;20415;-61
2021/09/20 12:05:34;;;;;;;5.57;5.27;;;22.00;37.40;;;;;;4950915;29;20473;-62
2021/09/20 12:08:03;;;;;;;7.40;6.80;;;22.00;37.40;;;;;;4954285;28;20577;-60
2021/09/20 12:10:39;;;;;;;6.30;5.90;;;22.00;37.40;;;;;;4954413;28;20466;-61
2021/09/20 12:13:15;;;;;;;6.00;5.60;;;22.00;37.40;;;;;;4954300;28;20948;-61
2021/09/20 12:15:43;;;;;;;6.27;5.77;;;22.00;37.40;;;;;;4953509;28;20407;-62
2021/09/20 12:18:13;;;;;;;6.53;5.93;;;22.00;37.40;;;;;;4954137;28;20443;-63
2021/09/20 12:20:50;;;;;;;7.37;6.87;;;22.00;37.50;;;;;;4954297;28;20435;-63
2021/09/20 12:23:20;;;;;;;7.10;6.60;;;22.00;37.60;;;;;;4954397;28;20539;-63
2021/09/20 12:25:53;;;;;;;6.57;6.17;;;22.00;37.50;;;;;;4954168;28;20411;-63
2021/09/20 12:28:18;;;;;;;6.73;5.83;;;22.00;37.40;;;;;;4953814;28;20434;-62
2021/09/20 12:31:15;;;;;;;7.03;6.50;;;22.00;37.40;;;;;;4954126;29;20543;-62
2021/09/20 12:33:49;;;;;;;6.33;5.80;;;22.00;37.50;;;;;;4953552;28;20194;-63
2021/09/20 12:36:25;;;;;;;6.73;6.23;;;22.00;37.50;;;;;;4953985;29;20429;-64
2021/09/20 12:39:12;;;;;;;5.80;5.40;;;22.00;37.50;;;;;;4953667;28;20454;-64
2021/09/20 12:42:02;;;;;;;6.03;5.63;;;22.00;37.40;;;;;;4953724;28;20443;-60
2021/09/20 12:44:40;;;;;;;6.30;5.90;;;22.00;37.40;;;;;;4953992;28;20415;-61
2021/09/20 12:47:14;;;;;;;6.40;5.93;;;22.10;37.50;;;;;;4953527;28;20415;-59
2021/09/20 12:49:41;;;;;;;6.53;6.13;;;22.10;37.60;;;;;;4953708;28;20813;-61
2021/09/20 12:52:26;;;;;;;7.23;6.73;;;22.10;37.70;;;;;;4953616;28;20431;-61